sensor_id;sensor_type;location;lat;lon;timestamp;P1;durP1;ratioP1;P2;durP2;ratioP2
56511;SDS011;42408;53.238;5.686;2023-08-12T00:01:49;13.93;;;8.77;;
56511;SDS011;42408;53.238;5.686;2023-08-12T00:04:15;14.43;;;8.03;;
56511;SDS011;42408;53.238;5.686;2023-08-12T00:06:41;14.98;;;8.60;;
56511;SDS011;42408;53.238;5.686;2023-08-12T00:09:07;15.25;;;8.95;;
56511;SDS011;42408;53.238;5.686;2023-08-12T00:11:36;12.98;;;9.18;;
56511;SDS011;42408;53.238;5.686;2023-08-12T00:14:02;15.40;;;9.07;;
56511;SDS011;42408;53.238;5.686;2023-08-12T00:16:28;14.50;;;8.55;;
56511;SDS011;42408;53.238;5.686;2023-08-12T00:18:53;14.03;;;8.53;;
56511;SDS011;42408;53.238;5.686;2023-08-12T00:21:19;11.27;;;7.77;;
56511;SDS011;42408;53.238;5.686;2023-08-12T00:23:45;12.10;;;7.83;;
56511;SDS011;42408;53.238;5.686;2023-08-12T00:26:12;11.88;;;7.68;;
56511;SDS011;42408;53.238;5.686;2023-08-12T00:28:38;14.77;;;8.53;;
56511;SDS011;42408;53.238;5.686;2023-08-12T00:31:04;13.73;;;8.40;;
56511;SDS011;42408;53.238;5.686;2023-08-12T00:33:30;11.68;;;7.70;;
56511;SDS011;42408;53.238;5.686;2023-08-12T00:35:55;11.10;;;7.40;;
56511;SDS011;42408;53.238;5.686;2023-08-12T00:38:21;12.27;;;7.20;;
56511;SDS011;42408;53.238;5.686;2023-08-12T00:40:47;11.98;;;7.00;;
56511;SDS011;42408;53.238;5.686;2023-08-12T00:43:13;11.93;;;7.43;;
56511;SDS011;42408;53.238;5.686;2023-08-12T00:45:39;12.20;;;7.47;;
56511;SDS011;42408;53.238;5.686;2023-08-12T00:48:05;12.50;;;7.32;;
56511;SDS011;42408;53.238;5.686;2023-08-12T00:50:32;12.43;;;6.60;;
56511;SDS011;42408;53.238;5.686;2023-08-12T00:52:58;10.93;;;6.67;;
56511;SDS011;42408;53.238;5.686;2023-08-12T00:55:24;10.10;;;6.57;;
56511;SDS011;42408;53.238;5.686;2023-08-12T00:57:50;10.27;;;6.03;;
56511;SDS011;42408;53.238;5.686;2023-08-12T01:00:16;11.50;;;6.63;;
56511;SDS011;42408;53.238;5.686;2023-08-12T01:02:44;11.70;;;6.38;;
56511;SDS011;42408;53.238;5.686;2023-08-12T01:05:13;12.15;;;5.38;;
56511;SDS011;42408;53.238;5.686;2023-08-12T01:07:42;10.25;;;6.55;;
56511;SDS011;42408;53.238;5.686;2023-08-12T01:10:08;11.02;;;5.57;;
56511;SDS011;42408;53.238;5.686;2023-08-12T01:15:49;13.15;;;5.53;;
56511;SDS011;42408;53.238;5.686;2023-08-12T01:18:20;11.02;;;5.85;;
56511;SDS011;42408;53.238;5.686;2023-08-12T01:20:49;11.75;;;5.75;;
56511;SDS011;42408;53.238;5.686;2023-08-12T01:23:15;10.70;;;5.20;;
56511;SDS011;42408;53.238;5.686;2023-08-12T01:25:42;10.70;;;5.75;;
56511;SDS011;42408;53.238;5.686;2023-08-12T01:28:08;9.25;;;5.35;;
56511;SDS011;42408;53.238;5.686;2023-08-12T01:30:34;10.63;;;5.27;;
56511;SDS011;42408;53.238;5.686;2023-08-12T01:33:39;11.40;;;5.38;;
56511;SDS011;42408;53.238;5.686;2023-08-12T01:36:19;9.48;;;5.63;;
56511;SDS011;42408;53.238;5.686;2023-08-12T01:38:46;10.50;;;5.70;;
56511;SDS011;42408;53.238;5.686;2023-08-12T01:41:15;11.30;;;5.97;;
56511;SDS011;42408;53.238;5.686;2023-08-12T01:43:43;12.05;;;6.18;;
56511;SDS011;42408;53.238;5.686;2023-08-12T01:46:09;9.98;;;5.88;;
56511;SDS011;42408;53.238;5.686;2023-08-12T01:48:35;11.48;;;5.82;;
56511;SDS011;42408;53.238;5.686;2023-08-12T01:51:01;11.43;;;6.30;;
56511;SDS011;42408;53.238;5.686;2023-08-12T01:55:53;10.95;;;5.95;;
56511;SDS011;42408;53.238;5.686;2023-08-12T01:58:19;10.20;;;6.27;;
56511;SDS011;42408;53.238;5.686;2023-08-12T02:00:45;11.07;;;5.43;;
56511;SDS011;42408;53.238;5.686;2023-08-12T02:03:11;11.73;;;6.43;;
56511;SDS011;42408;53.238;5.686;2023-08-12T02:05:36;10.33;;;5.83;;
56511;SDS011;42408;53.238;5.686;2023-08-12T02:08:03;10.93;;;5.87;;
56511;SDS011;42408;53.238;5.686;2023-08-12T02:10:29;11.35;;;6.55;;
56511;SDS011;42408;53.238;5.686;2023-08-12T02:12:55;9.87;;;6.00;;
56511;SDS011;42408;53.238;5.686;2023-08-12T02:15:21;11.90;;;6.20;;
56511;SDS011;42408;53.238;5.686;2023-08-12T02:17:46;9.77;;;5.90;;
56511;SDS011;42408;53.238;5.686;2023-08-12T02:20:13;11.60;;;7.47;;
56511;SDS011;42408;53.238;5.686;2023-08-12T02:22:38;10.60;;;6.43;;
56511;SDS011;42408;53.238;5.686;2023-08-12T02:25:04;11.63;;;6.70;;
56511;SDS011;42408;53.238;5.686;2023-08-12T02:27:30;18.03;;;7.07;;
56511;SDS011;42408;53.238;5.686;2023-08-12T02:29:55;11.87;;;7.13;;
56511;SDS011;42408;53.238;5.686;2023-08-12T02:32:21;12.77;;;7.40;;
56511;SDS011;42408;53.238;5.686;2023-08-12T02:34:47;9.93;;;6.20;;
56511;SDS011;42408;53.238;5.686;2023-08-12T02:37:13;12.30;;;7.63;;
56511;SDS011;42408;53.238;5.686;2023-08-12T02:39:38;12.43;;;6.40;;
56511;SDS011;42408;53.238;5.686;2023-08-12T02:42:04;15.03;;;8.40;;
56511;SDS011;42408;53.238;5.686;2023-08-12T02:44:30;13.43;;;7.95;;
56511;SDS011;42408;53.238;5.686;2023-08-12T02:46:56;12.33;;;7.80;;
56511;SDS011;42408;53.238;5.686;2023-08-12T02:49:21;12.20;;;7.57;;
56511;SDS011;42408;53.238;5.686;2023-08-12T02:51:47;13.70;;;7.90;;
56511;SDS011;42408;53.238;5.686;2023-08-12T02:54:13;11.63;;;7.00;;
56511;SDS011;42408;53.238;5.686;2023-08-12T02:56:38;11.40;;;7.77;;
56511;SDS011;42408;53.238;5.686;2023-08-12T02:59:05;12.40;;;7.43;;
56511;SDS011;42408;53.238;5.686;2023-08-12T03:01:30;14.30;;;7.97;;
56511;SDS011;42408;53.238;5.686;2023-08-12T03:03:56;11.23;;;7.20;;
56511;SDS011;42408;53.238;5.686;2023-08-12T03:06:22;13.07;;;8.07;;
56511;SDS011;42408;53.238;5.686;2023-08-12T03:08:47;14.27;;;8.17;;
56511;SDS011;42408;53.238;5.686;2023-08-12T03:11:13;14.63;;;7.33;;
56511;SDS011;42408;53.238;5.686;2023-08-12T03:13:38;13.47;;;7.37;;
56511;SDS011;42408;53.238;5.686;2023-08-12T03:16:04;12.33;;;8.10;;
56511;SDS011;42408;53.238;5.686;2023-08-12T03:18:30;12.07;;;7.00;;
56511;SDS011;42408;53.238;5.686;2023-08-12T03:20:55;12.87;;;8.03;;
56511;SDS011;42408;53.238;5.686;2023-08-12T03:23:21;12.03;;;7.97;;
56511;SDS011;42408;53.238;5.686;2023-08-12T03:25:47;12.27;;;7.75;;
56511;SDS011;42408;53.238;5.686;2023-08-12T03:28:13;14.93;;;7.72;;
56511;SDS011;42408;53.238;5.686;2023-08-12T03:30:39;13.45;;;7.38;;
56511;SDS011;42408;53.238;5.686;2023-08-12T03:33:05;12.83;;;7.07;;
56511;SDS011;42408;53.238;5.686;2023-08-12T03:35:30;13.03;;;8.13;;
56511;SDS011;42408;53.238;5.686;2023-08-12T03:37:56;13.57;;;8.30;;
56511;SDS011;42408;53.238;5.686;2023-08-12T03:40:22;13.07;;;7.77;;
56511;SDS011;42408;53.238;5.686;2023-08-12T03:42:47;14.47;;;7.30;;
56511;SDS011;42408;53.238;5.686;2023-08-12T03:45:13;13.50;;;7.63;;
56511;SDS011;42408;53.238;5.686;2023-08-12T03:47:39;17.00;;;8.17;;
56511;SDS011;42408;53.238;5.686;2023-08-12T03:50:05;12.73;;;7.63;;
56511;SDS011;42408;53.238;5.686;2023-08-12T03:54:57;14.57;;;7.47;;
56511;SDS011;42408;53.238;5.686;2023-08-12T03:57:22;14.50;;;8.68;;
56511;SDS011;42408;53.238;5.686;2023-08-12T03:59:48;16.60;;;8.70;;
56511;SDS011;42408;53.238;5.686;2023-08-12T04:02:14;11.67;;;7.50;;
56511;SDS011;42408;53.238;5.686;2023-08-12T04:04:39;16.07;;;8.43;;
56511;SDS011;42408;53.238;5.686;2023-08-12T04:07:07;12.73;;;8.27;;
56511;SDS011;42408;53.238;5.686;2023-08-12T04:09:33;14.95;;;7.93;;
56511;SDS011;42408;53.238;5.686;2023-08-12T04:11:59;15.37;;;8.27;;
56511;SDS011;42408;53.238;5.686;2023-08-12T04:14:24;14.23;;;9.17;;
56511;SDS011;42408;53.238;5.686;2023-08-12T04:16:50;14.33;;;8.63;;
56511;SDS011;42408;53.238;5.686;2023-08-12T04:19:16;14.80;;;8.73;;
56511;SDS011;42408;53.238;5.686;2023-08-12T04:21:41;16.57;;;8.90;;
56511;SDS011;42408;53.238;5.686;2023-08-12T04:24:11;14.23;;;8.52;;
56511;SDS011;42408;53.238;5.686;2023-08-12T04:26:37;12.77;;;9.10;;
56511;SDS011;42408;53.238;5.686;2023-08-12T04:29:02;15.77;;;9.57;;
56511;SDS011;42408;53.238;5.686;2023-08-12T04:31:28;15.70;;;9.53;;
56511;SDS011;42408;53.238;5.686;2023-08-12T04:33:54;14.80;;;8.33;;
56511;SDS011;42408;53.238;5.686;2023-08-12T04:36:19;14.47;;;9.20;;
56511;SDS011;42408;53.238;5.686;2023-08-12T04:38:45;14.30;;;9.57;;
56511;SDS011;42408;53.238;5.686;2023-08-12T04:41:11;16.00;;;9.53;;
56511;SDS011;42408;53.238;5.686;2023-08-12T04:43:36;14.87;;;8.87;;
56511;SDS011;42408;53.238;5.686;2023-08-12T04:46:02;21.90;;;9.20;;
56511;SDS011;42408;53.238;5.686;2023-08-12T04:48:27;16.37;;;8.60;;
56511;SDS011;42408;53.238;5.686;2023-08-12T04:50:53;14.03;;;8.60;;
56511;SDS011;42408;53.238;5.686;2023-08-12T04:53:19;13.02;;;8.73;;
56511;SDS011;42408;53.238;5.686;2023-08-12T04:55:45;12.47;;;8.37;;
56511;SDS011;42408;53.238;5.686;2023-08-12T04:58:15;15.88;;;9.48;;
56511;SDS011;42408;53.238;5.686;2023-08-12T05:00:41;16.77;;;9.10;;
56511;SDS011;42408;53.238;5.686;2023-08-12T05:03:07;17.57;;;8.87;;
56511;SDS011;42408;53.238;5.686;2023-08-12T05:05:32;14.57;;;8.27;;
56511;SDS011;42408;53.238;5.686;2023-08-12T05:07:58;15.57;;;7.97;;
56511;SDS011;42408;53.238;5.686;2023-08-12T05:10:24;12.73;;;8.57;;
56511;SDS011;42408;53.238;5.686;2023-08-12T05:12:49;16.00;;;9.03;;
56511;SDS011;42408;53.238;5.686;2023-08-12T05:15:17;15.00;;;8.13;;
56511;SDS011;42408;53.238;5.686;2023-08-12T05:17:42;15.73;;;8.97;;
56511;SDS011;42408;53.238;5.686;2023-08-12T05:20:08;14.67;;;7.97;;
56511;SDS011;42408;53.238;5.686;2023-08-12T05:22:34;14.82;;;8.70;;
56511;SDS011;42408;53.238;5.686;2023-08-12T05:25:00;14.17;;;8.23;;
56511;SDS011;42408;53.238;5.686;2023-08-12T05:27:25;15.37;;;8.50;;
56511;SDS011;42408;53.238;5.686;2023-08-12T05:29:51;12.37;;;8.50;;
56511;SDS011;42408;53.238;5.686;2023-08-12T05:32:17;13.17;;;7.83;;
56511;SDS011;42408;53.238;5.686;2023-08-12T05:34:42;16.63;;;9.10;;
56511;SDS011;42408;53.238;5.686;2023-08-12T05:37:08;14.23;;;9.10;;
56511;SDS011;42408;53.238;5.686;2023-08-12T05:39:34;14.53;;;8.87;;
56511;SDS011;42408;53.238;5.686;2023-08-12T05:41:59;14.93;;;8.50;;
56511;SDS011;42408;53.238;5.686;2023-08-12T05:44:25;16.60;;;9.30;;
56511;SDS011;42408;53.238;5.686;2023-08-12T05:46:51;16.07;;;9.27;;
56511;SDS011;42408;53.238;5.686;2023-08-12T05:49:16;16.60;;;9.00;;
56511;SDS011;42408;53.238;5.686;2023-08-12T05:51:42;17.63;;;9.67;;
56511;SDS011;42408;53.238;5.686;2023-08-12T05:54:08;16.97;;;9.30;;
56511;SDS011;42408;53.238;5.686;2023-08-12T05:56:34;16.50;;;9.97;;
56511;SDS011;42408;53.238;5.686;2023-08-12T05:58:59;17.40;;;9.40;;
56511;SDS011;42408;53.238;5.686;2023-08-12T06:01:25;16.83;;;10.50;;
56511;SDS011;42408;53.238;5.686;2023-08-12T06:03:51;15.97;;;10.03;;
56511;SDS011;42408;53.238;5.686;2023-08-12T06:06:16;16.33;;;9.77;;
56511;SDS011;42408;53.238;5.686;2023-08-12T06:08:42;18.27;;;10.13;;
56511;SDS011;42408;53.238;5.686;2023-08-12T06:11:08;18.35;;;10.90;;
56511;SDS011;42408;53.238;5.686;2023-08-12T06:13:33;18.97;;;10.07;;
56511;SDS011;42408;53.238;5.686;2023-08-12T06:15:59;16.63;;;10.70;;
56511;SDS011;42408;53.238;5.686;2023-08-12T06:18:25;17.03;;;10.53;;
56511;SDS011;42408;53.238;5.686;2023-08-12T06:20:50;19.37;;;11.40;;
56511;SDS011;42408;53.238;5.686;2023-08-12T06:23:16;16.93;;;11.23;;
56511;SDS011;42408;53.238;5.686;2023-08-12T06:25:42;20.15;;;11.18;;
56511;SDS011;42408;53.238;5.686;2023-08-12T06:28:08;20.25;;;11.75;;
56511;SDS011;42408;53.238;5.686;2023-08-12T06:30:35;18.55;;;10.90;;
56511;SDS011;42408;53.238;5.686;2023-08-12T06:33:01;19.00;;;11.43;;
56511;SDS011;42408;53.238;5.686;2023-08-12T06:35:26;19.77;;;10.80;;
56511;SDS011;42408;53.238;5.686;2023-08-12T06:37:52;16.90;;;10.33;;
56511;SDS011;42408;53.238;5.686;2023-08-12T06:40:18;16.80;;;10.83;;
56511;SDS011;42408;53.238;5.686;2023-08-12T06:42:44;17.23;;;9.77;;
56511;SDS011;42408;53.238;5.686;2023-08-12T06:45:10;16.63;;;10.77;;
56511;SDS011;42408;53.238;5.686;2023-08-12T06:47:36;18.75;;;11.10;;
56511;SDS011;42408;53.238;5.686;2023-08-12T06:50:02;17.37;;;11.50;;
56511;SDS011;42408;53.238;5.686;2023-08-12T06:52:27;16.80;;;11.70;;
56511;SDS011;42408;53.238;5.686;2023-08-12T06:54:53;17.73;;;11.67;;
56511;SDS011;42408;53.238;5.686;2023-08-12T06:57:19;18.07;;;11.23;;
56511;SDS011;42408;53.238;5.686;2023-08-12T06:59:45;15.83;;;11.53;;
56511;SDS011;42408;53.238;5.686;2023-08-12T07:02:11;18.70;;;12.43;;
56511;SDS011;42408;53.238;5.686;2023-08-12T07:04:37;18.88;;;12.73;;
56511;SDS011;42408;53.238;5.686;2023-08-12T07:07:02;20.30;;;12.10;;
56511;SDS011;42408;53.238;5.686;2023-08-12T07:09:28;18.43;;;11.37;;
56511;SDS011;42408;53.238;5.686;2023-08-12T07:11:54;18.47;;;11.60;;
56511;SDS011;42408;53.238;5.686;2023-08-12T07:14:19;18.80;;;12.33;;
56511;SDS011;42408;53.238;5.686;2023-08-12T07:16:45;19.63;;;12.20;;
56511;SDS011;42408;53.238;5.686;2023-08-12T07:19:11;19.77;;;13.10;;
56511;SDS011;42408;53.238;5.686;2023-08-12T07:21:36;22.30;;;12.93;;
56511;SDS011;42408;53.238;5.686;2023-08-12T07:24:02;18.70;;;12.63;;
56511;SDS011;42408;53.238;5.686;2023-08-12T07:26:28;20.93;;;12.17;;
56511;SDS011;42408;53.238;5.686;2023-08-12T07:28:53;18.77;;;12.37;;
56511;SDS011;42408;53.238;5.686;2023-08-12T07:31:19;20.50;;;12.77;;
56511;SDS011;42408;53.238;5.686;2023-08-12T07:33:45;17.37;;;12.40;;
56511;SDS011;42408;53.238;5.686;2023-08-12T07:36:10;22.47;;;14.37;;
56511;SDS011;42408;53.238;5.686;2023-08-12T07:38:36;19.33;;;13.20;;
56511;SDS011;42408;53.238;5.686;2023-08-12T07:41:02;22.17;;;13.57;;
56511;SDS011;42408;53.238;5.686;2023-08-12T07:43:27;22.40;;;14.00;;
56511;SDS011;42408;53.238;5.686;2023-08-12T07:45:53;22.33;;;14.00;;
56511;SDS011;42408;53.238;5.686;2023-08-12T07:48:19;20.02;;;12.95;;
56511;SDS011;42408;53.238;5.686;2023-08-12T07:50:46;24.25;;;13.52;;
56511;SDS011;42408;53.238;5.686;2023-08-12T07:53:14;20.70;;;15.25;;
56511;SDS011;42408;53.238;5.686;2023-08-12T07:55:41;22.77;;;14.35;;
56511;SDS011;42408;53.238;5.686;2023-08-12T07:58:07;24.95;;;15.20;;
56511;SDS011;42408;53.238;5.686;2023-08-12T08:00:33;23.83;;;15.40;;
56511;SDS011;42408;53.238;5.686;2023-08-12T08:02:58;24.80;;;15.73;;
56511;SDS011;42408;53.238;5.686;2023-08-12T08:05:24;25.73;;;16.10;;
56511;SDS011;42408;53.238;5.686;2023-08-12T08:07:50;24.23;;;16.23;;
56511;SDS011;42408;53.238;5.686;2023-08-12T08:10:16;28.80;;;16.77;;
56511;SDS011;42408;53.238;5.686;2023-08-12T08:12:41;23.67;;;15.65;;
56511;SDS011;42408;53.238;5.686;2023-08-12T08:15:07;26.00;;;16.90;;
56511;SDS011;42408;53.238;5.686;2023-08-12T08:17:33;26.83;;;16.25;;
56511;SDS011;42408;53.238;5.686;2023-08-12T08:19:59;23.10;;;16.10;;
56511;SDS011;42408;53.238;5.686;2023-08-12T08:22:24;28.17;;;17.50;;
56511;SDS011;42408;53.238;5.686;2023-08-12T08:24:50;25.50;;;18.17;;
56511;SDS011;42408;53.238;5.686;2023-08-12T08:27:16;26.17;;;18.00;;
56511;SDS011;42408;53.238;5.686;2023-08-12T08:29:41;25.43;;;17.73;;
56511;SDS011;42408;53.238;5.686;2023-08-12T08:32:07;27.17;;;17.20;;
56511;SDS011;42408;53.238;5.686;2023-08-12T08:34:33;24.38;;;16.65;;
56511;SDS011;42408;53.238;5.686;2023-08-12T08:36:59;25.73;;;18.13;;
56511;SDS011;42408;53.238;5.686;2023-08-12T08:39:24;27.60;;;18.27;;
56511;SDS011;42408;53.238;5.686;2023-08-12T08:41:51;27.73;;;18.88;;
56511;SDS011;42408;53.238;5.686;2023-08-12T08:44:20;27.60;;;18.40;;
56511;SDS011;42408;53.238;5.686;2023-08-12T08:46:49;27.17;;;18.17;;
56511;SDS011;42408;53.238;5.686;2023-08-12T08:49:19;32.72;;;19.60;;
56511;SDS011;42408;53.238;5.686;2023-08-12T08:51:46;35.65;;;20.27;;
56511;SDS011;42408;53.238;5.686;2023-08-12T08:56:38;28.70;;;17.95;;
56511;SDS011;42408;53.238;5.686;2023-08-12T08:59:04;28.55;;;19.40;;
56511;SDS011;42408;53.238;5.686;2023-08-12T09:01:30;33.50;;;20.87;;
56511;SDS011;42408;53.238;5.686;2023-08-12T09:03:57;30.25;;;19.95;;
56511;SDS011;42408;53.238;5.686;2023-08-12T09:06:26;29.35;;;19.95;;
56511;SDS011;42408;53.238;5.686;2023-08-12T09:08:54;27.48;;;19.80;;
56511;SDS011;42408;53.238;5.686;2023-08-12T09:11:20;27.02;;;18.85;;
56511;SDS011;42408;53.238;5.686;2023-08-12T09:13:46;32.22;;;20.35;;
56511;SDS011;42408;53.238;5.686;2023-08-12T09:18:40;25.48;;;15.98;;
56511;SDS011;42408;53.238;5.686;2023-08-12T09:21:08;17.38;;;10.77;;
56511;SDS011;42408;53.238;5.686;2023-08-12T09:23:37;13.52;;;8.32;;
56511;SDS011;42408;53.238;5.686;2023-08-12T09:26:12;14.93;;;8.10;;
56511;SDS011;42408;53.238;5.686;2023-08-12T09:28:39;12.07;;;8.57;;
56511;SDS011;42408;53.238;5.686;2023-08-12T09:31:05;12.60;;;8.82;;
56511;SDS011;42408;53.238;5.686;2023-08-12T09:35:57;12.52;;;6.50;;
56511;SDS011;42408;53.238;5.686;2023-08-12T09:38:23;8.03;;;4.13;;
56511;SDS011;42408;53.238;5.686;2023-08-12T09:40:49;8.40;;;4.40;;
56511;SDS011;42408;53.238;5.686;2023-08-12T09:43:17;10.05;;;4.85;;
56511;SDS011;42408;53.238;5.686;2023-08-12T09:45:43;9.30;;;4.07;;
56511;SDS011;42408;53.238;5.686;2023-08-12T09:48:10;11.43;;;4.53;;
56511;SDS011;42408;53.238;5.686;2023-08-12T09:50:36;8.80;;;4.90;;
56511;SDS011;42408;53.238;5.686;2023-08-12T09:53:02;10.37;;;4.43;;
56511;SDS011;42408;53.238;5.686;2023-08-12T09:55:28;9.90;;;4.75;;
56511;SDS011;42408;53.238;5.686;2023-08-12T09:57:56;11.38;;;5.03;;
56511;SDS011;42408;53.238;5.686;2023-08-12T10:00:24;8.68;;;4.10;;
56511;SDS011;42408;53.238;5.686;2023-08-12T10:02:50;9.55;;;4.82;;
56511;SDS011;42408;53.238;5.686;2023-08-12T10:05:31;8.40;;;4.63;;
56511;SDS011;42408;53.238;5.686;2023-08-12T10:07:57;10.27;;;4.80;;
56511;SDS011;42408;53.238;5.686;2023-08-12T10:10:24;10.50;;;3.97;;
56511;SDS011;42408;53.238;5.686;2023-08-12T10:12:50;7.78;;;3.55;;
56511;SDS011;42408;53.238;5.686;2023-08-12T10:15:16;7.78;;;2.95;;
56511;SDS011;42408;53.238;5.686;2023-08-12T10:17:42;9.25;;;2.70;;
56511;SDS011;42408;53.238;5.686;2023-08-12T10:22:37;6.22;;;3.08;;
56511;SDS011;42408;53.238;5.686;2023-08-12T10:25:05;7.38;;;2.83;;
56511;SDS011;42408;53.238;5.686;2023-08-12T10:27:33;6.13;;;2.67;;
56511;SDS011;42408;53.238;5.686;2023-08-12T10:30:02;9.18;;;3.45;;
56511;SDS011;42408;53.238;5.686;2023-08-12T10:32:31;8.20;;;2.92;;
56511;SDS011;42408;53.238;5.686;2023-08-12T10:37:24;9.18;;;3.08;;
56511;SDS011;42408;53.238;5.686;2023-08-12T10:39:53;7.55;;;2.92;;
56511;SDS011;42408;53.238;5.686;2023-08-12T10:45:05;7.50;;;3.25;;
56511;SDS011;42408;53.238;5.686;2023-08-12T10:47:31;11.38;;;3.33;;
56511;SDS011;42408;53.238;5.686;2023-08-12T10:49:57;9.38;;;2.78;;
56511;SDS011;42408;53.238;5.686;2023-08-12T10:52:30;9.30;;;2.75;;
56511;SDS011;42408;53.238;5.686;2023-08-12T10:57:57;11.98;;;3.30;;
56511;SDS011;42408;53.238;5.686;2023-08-12T11:00:24;8.38;;;3.60;;
56511;SDS011;42408;53.238;5.686;2023-08-12T11:02:54;8.88;;;2.92;;
56511;SDS011;42408;53.238;5.686;2023-08-12T11:05:22;11.82;;;3.63;;
56511;SDS011;42408;53.238;5.686;2023-08-12T11:10:23;7.22;;;2.75;;
56511;SDS011;42408;53.238;5.686;2023-08-12T11:15:16;5.53;;;2.03;;
56511;SDS011;42408;53.238;5.686;2023-08-12T11:17:42;8.73;;;2.42;;
56511;SDS011;42408;53.238;5.686;2023-08-12T11:20:11;5.88;;;2.10;;
56511;SDS011;42408;53.238;5.686;2023-08-12T11:22:41;6.95;;;2.35;;
56511;SDS011;42408;53.238;5.686;2023-08-12T11:25:09;5.78;;;2.35;;
56511;SDS011;42408;53.238;5.686;2023-08-12T11:27:39;7.03;;;2.67;;
56511;SDS011;42408;53.238;5.686;2023-08-12T11:30:12;10.73;;;3.90;;
56511;SDS011;42408;53.238;5.686;2023-08-12T11:32:42;9.80;;;2.83;;
56511;SDS011;42408;53.238;5.686;2023-08-12T11:37:36;8.50;;;2.85;;
56511;SDS011;42408;53.238;5.686;2023-08-12T11:40:03;9.27;;;2.65;;
56511;SDS011;42408;53.238;5.686;2023-08-12T11:42:30;8.02;;;3.20;;
56511;SDS011;42408;53.238;5.686;2023-08-12T11:44:56;9.60;;;3.42;;
56511;SDS011;42408;53.238;5.686;2023-08-12T11:47:22;7.28;;;3.38;;
56511;SDS011;42408;53.238;5.686;2023-08-12T11:49:48;11.23;;;3.43;;
56511;SDS011;42408;53.238;5.686;2023-08-12T11:52:14;8.63;;;3.40;;
56511;SDS011;42408;53.238;5.686;2023-08-12T11:54:40;9.68;;;3.70;;
56511;SDS011;42408;53.238;5.686;2023-08-12T11:57:05;6.63;;;3.30;;
56511;SDS011;42408;53.238;5.686;2023-08-12T11:59:31;10.20;;;3.67;;
56511;SDS011;42408;53.238;5.686;2023-08-12T12:01:57;11.63;;;4.57;;
56511;SDS011;42408;53.238;5.686;2023-08-12T12:04:23;9.60;;;3.60;;
56511;SDS011;42408;53.238;5.686;2023-08-12T12:09:15;9.80;;;4.30;;
56511;SDS011;42408;53.238;5.686;2023-08-12T12:11:43;12.00;;;4.15;;
56511;SDS011;42408;53.238;5.686;2023-08-12T12:19:08;12.25;;;4.20;;
56511;SDS011;42408;53.238;5.686;2023-08-12T12:21:41;15.10;;;4.30;;
56511;SDS011;42408;53.238;5.686;2023-08-12T12:24:09;13.75;;;4.82;;
56511;SDS011;42408;53.238;5.686;2023-08-12T12:26:35;10.37;;;3.53;;
56511;SDS011;42408;53.238;5.686;2023-08-12T12:29:02;11.13;;;3.85;;
56511;SDS011;42408;53.238;5.686;2023-08-12T12:31:28;11.90;;;4.15;;
56511;SDS011;42408;53.238;5.686;2023-08-12T12:33:57;9.43;;;3.92;;
56511;SDS011;42408;53.238;5.686;2023-08-12T12:36:23;9.70;;;4.30;;
56511;SDS011;42408;53.238;5.686;2023-08-12T12:38:48;10.73;;;4.20;;
56511;SDS011;42408;53.238;5.686;2023-08-12T12:41:14;10.95;;;4.13;;
56511;SDS011;42408;53.238;5.686;2023-08-12T12:43:40;11.60;;;3.73;;
56511;SDS011;42408;53.238;5.686;2023-08-12T12:46:05;11.47;;;4.57;;
56511;SDS011;42408;53.238;5.686;2023-08-12T12:48:32;14.27;;;4.60;;
56511;SDS011;42408;53.238;5.686;2023-08-12T12:50:58;12.33;;;4.33;;
56511;SDS011;42408;53.238;5.686;2023-08-12T12:53:24;15.00;;;4.00;;
56511;SDS011;42408;53.238;5.686;2023-08-12T12:55:49;13.43;;;3.43;;
56511;SDS011;42408;53.238;5.686;2023-08-12T12:58:15;11.97;;;4.17;;
56511;SDS011;42408;53.238;5.686;2023-08-12T13:00:41;11.60;;;3.83;;
56511;SDS011;42408;53.238;5.686;2023-08-12T13:03:07;12.93;;;4.10;;
56511;SDS011;42408;53.238;5.686;2023-08-12T13:05:32;10.17;;;3.03;;
56511;SDS011;42408;53.238;5.686;2023-08-12T13:07:58;11.03;;;3.60;;
56511;SDS011;42408;53.238;5.686;2023-08-12T13:10:24;11.95;;;4.43;;
56511;SDS011;42408;53.238;5.686;2023-08-12T13:12:49;12.77;;;3.23;;
56511;SDS011;42408;53.238;5.686;2023-08-12T13:15:15;11.53;;;3.37;;
56511;SDS011;42408;53.238;5.686;2023-08-12T13:17:40;8.63;;;3.60;;
56511;SDS011;42408;53.238;5.686;2023-08-12T13:20:06;9.48;;;3.50;;
56511;SDS011;42408;53.238;5.686;2023-08-12T13:22:33;8.77;;;3.40;;
56511;SDS011;42408;53.238;5.686;2023-08-12T13:24:58;10.73;;;3.60;;
56511;SDS011;42408;53.238;5.686;2023-08-12T13:27:24;11.30;;;3.65;;
56511;SDS011;42408;53.238;5.686;2023-08-12T13:29:50;10.27;;;3.53;;
56511;SDS011;42408;53.238;5.686;2023-08-12T13:32:15;9.37;;;3.33;;
56511;SDS011;42408;53.238;5.686;2023-08-12T13:34:41;11.27;;;3.17;;
56511;SDS011;42408;53.238;5.686;2023-08-12T13:37:09;11.88;;;3.90;;
56511;SDS011;42408;53.238;5.686;2023-08-12T13:39:35;8.27;;;2.78;;
56511;SDS011;42408;53.238;5.686;2023-08-12T13:42:01;8.77;;;3.10;;
56511;SDS011;42408;53.238;5.686;2023-08-12T13:46:53;9.65;;;3.53;;
56511;SDS011;42408;53.238;5.686;2023-08-12T13:49:18;10.63;;;3.58;;
56511;SDS011;42408;53.238;5.686;2023-08-12T13:51:44;10.55;;;3.53;;
56511;SDS011;42408;53.238;5.686;2023-08-12T13:54:10;10.30;;;4.10;;
56511;SDS011;42408;53.238;5.686;2023-08-12T13:56:35;11.90;;;3.75;;
56511;SDS011;42408;53.238;5.686;2023-08-12T13:59:01;9.63;;;3.38;;
56511;SDS011;42408;53.238;5.686;2023-08-12T14:01:27;11.77;;;3.25;;
56511;SDS011;42408;53.238;5.686;2023-08-12T14:03:52;6.33;;;2.60;;
56511;SDS011;42408;53.238;5.686;2023-08-12T14:06:18;8.07;;;3.07;;
56511;SDS011;42408;53.238;5.686;2023-08-12T14:08:44;9.43;;;3.37;;
56511;SDS011;42408;53.238;5.686;2023-08-12T14:11:09;11.13;;;3.43;;
56511;SDS011;42408;53.238;5.686;2023-08-12T14:13:35;9.97;;;3.17;;
56511;SDS011;42408;53.238;5.686;2023-08-12T14:16:00;10.70;;;3.40;;
56511;SDS011;42408;53.238;5.686;2023-08-12T14:18:26;10.85;;;3.17;;
56511;SDS011;42408;53.238;5.686;2023-08-12T14:20:52;10.75;;;3.22;;
56511;SDS011;42408;53.238;5.686;2023-08-12T14:23:17;12.90;;;3.38;;
56511;SDS011;42408;53.238;5.686;2023-08-12T14:25:43;8.97;;;3.07;;
56511;SDS011;42408;53.238;5.686;2023-08-12T14:28:09;9.27;;;3.13;;
56511;SDS011;42408;53.238;5.686;2023-08-12T14:30:34;11.57;;;3.30;;
56511;SDS011;42408;53.238;5.686;2023-08-12T14:33:03;7.68;;;3.00;;
56511;SDS011;42408;53.238;5.686;2023-08-12T14:35:28;10.60;;;2.83;;
56511;SDS011;42408;53.238;5.686;2023-08-12T14:37:54;13.40;;;3.67;;
56511;SDS011;42408;53.238;5.686;2023-08-12T14:40:20;9.85;;;2.85;;
56511;SDS011;42408;53.238;5.686;2023-08-12T14:42:46;10.05;;;3.30;;
56511;SDS011;42408;53.238;5.686;2023-08-12T14:45:11;8.83;;;2.60;;
56511;SDS011;42408;53.238;5.686;2023-08-12T14:47:37;6.75;;;3.00;;
56511;SDS011;42408;53.238;5.686;2023-08-12T14:50:03;8.32;;;2.75;;
56511;SDS011;42408;53.238;5.686;2023-08-12T14:52:29;11.52;;;3.42;;
56511;SDS011;42408;53.238;5.686;2023-08-12T14:54:55;13.02;;;4.35;;
56511;SDS011;42408;53.238;5.686;2023-08-12T14:57:20;8.73;;;3.00;;
56511;SDS011;42408;53.238;5.686;2023-08-12T14:59:46;11.18;;;3.58;;
56511;SDS011;42408;53.238;5.686;2023-08-12T15:02:15;12.25;;;3.33;;
56511;SDS011;42408;53.238;5.686;2023-08-12T15:04:42;9.63;;;3.33;;
56511;SDS011;42408;53.238;5.686;2023-08-12T15:07:08;11.43;;;2.85;;
56511;SDS011;42408;53.238;5.686;2023-08-12T15:09:34;11.82;;;3.13;;
56511;SDS011;42408;53.238;5.686;2023-08-12T15:11:59;9.88;;;3.25;;